createdAt,value
2018-09-28T00:02:35.561Z,10.95
2018-09-28T00:05:02.225Z,10.73
2018-09-28T00:07:28.821Z,10.22
2018-09-28T00:09:56.299Z,10.21
2018-09-28T00:12:23.283Z,10.08
2018-09-28T00:14:49.942Z,9.83
2018-09-28T00:17:16.630Z,9.95
2018-09-28T00:19:43.101Z,9.87
2018-09-28T00:22:09.953Z,9.79
2018-09-28T00:24:36.455Z,10.52
2018-09-28T00:27:02.968Z,10.98
2018-09-28T00:31:25.325Z,11.13
2018-09-28T03:07:15.887Z,10.62
2018-09-28T03:09:42.398Z,10.60
2018-09-28T03:36:40.931Z,9.19
2018-09-28T03:39:07.478Z,9.44
2018-09-28T03:41:34.255Z,9.61
2018-09-28T03:44:00.898Z,9.51
2018-09-28T03:46:28.017Z,9.57
2018-09-28T03:48:54.503Z,9.10
2018-09-28T03:51:22.382Z,9.25
2018-09-28T03:53:49.091Z,9.16
2018-09-28T03:56:15.573Z,8.98
2018-09-28T03:58:42.073Z,8.67
2018-09-28T04:01:09.698Z,8.67
2018-09-28T04:28:11.288Z,9.32
2018-09-28T04:30:38.665Z,9.84
2018-09-28T04:33:05.792Z,10.01
2018-09-28T04:35:32.431Z,10.23
2018-09-28T04:37:58.913Z,9.97
2018-09-28T04:40:25.881Z,10.13
2018-09-28T04:42:53.297Z,10.25
2018-09-28T05:05:53.523Z,9.95
2018-09-28T05:08:20.297Z,9.49
2018-09-28T05:10:48.221Z,9.31
2018-09-28T05:13:14.712Z,9.36
2018-09-28T05:15:41.265Z,9.43
2018-09-28T05:18:08.142Z,9.39
2018-09-28T05:20:35.198Z,9.16
2018-09-28T05:23:01.759Z,9.14
2018-09-28T05:25:29.030Z,9.20
2018-09-28T05:27:56.260Z,9.16
2018-09-28T05:47:44.458Z,9.76
2018-09-28T07:10:29.853Z,11.14
2018-09-28T07:12:56.453Z,10.84
2018-09-28T07:15:23.337Z,10.67
2018-09-28T07:17:49.991Z,10.71
2018-09-28T07:20:16.502Z,10.83
2018-09-28T07:22:43.484Z,10.93
2018-09-28T07:59:17.613Z,10.23
2018-09-28T08:01:44.526Z,10.23
2018-09-28T08:04:11.166Z,10.37
2018-09-28T08:33:09.504Z,11.12
2018-09-28T08:35:36.140Z,11.11
2018-09-28T08:38:03.751Z,11.18
2018-09-28T08:55:13.232Z,11.33
2018-09-28T08:57:41.280Z,11.35
2018-09-28T09:00:09.159Z,11.36
2018-09-28T09:05:46.123Z,11.38
2018-09-28T09:08:13.457Z,11.45
2018-09-28T09:10:40.798Z,11.53
2018-09-28T09:13:08.973Z,11.57
2018-09-28T09:15:36.212Z,11.57
2018-09-28T09:37:30.103Z,12.23
2018-09-28T09:48:10.911Z,12.33
2018-09-28T10:09:12.604Z,12.32
2018-09-28T10:11:39.530Z,12.30
2018-09-28T10:14:06.205Z,12.39
2018-09-28T10:16:32.801Z,12.59
2018-09-28T10:19:00.865Z,12.74
2018-09-28T10:21:27.392Z,12.86
2018-09-28T10:23:54.992Z,12.98
2018-09-28T10:26:21.811Z,13.16
2018-09-28T10:28:48.561Z,13.31
2018-09-28T10:31:15.159Z,13.37
2018-09-28T10:33:43.007Z,13.43
2018-09-28T10:36:10.316Z,13.50
2018-09-28T10:38:38.038Z,13.67
2018-09-28T10:41:06.186Z,13.49
2018-09-28T10:43:32.947Z,13.10
2018-09-28T10:45:59.474Z,13.07
2018-09-28T11:20:36.500Z,12.46
2018-09-28T13:33:44.429Z,16.18
2018-09-28T13:36:12.184Z,16.36
2018-09-28T14:56:52.776Z,21.07
2018-09-28T14:59:19.371Z,21.17
2018-09-28T15:16:57.379Z,18.91
2018-09-28T15:19:26.072Z,17.34
2018-09-28T18:51:36.190Z,9.96
2018-09-28T18:54:02.879Z,9.88
2018-09-28T18:56:33.606Z,9.82
2018-09-28T18:59:02.263Z,9.75
2018-09-28T19:01:28.737Z,9.68
2018-09-28T19:03:56.552Z,9.66
2018-09-28T19:15:18.694Z,9.43
2018-09-28T19:17:50.792Z,9.37
2018-09-28T19:20:19.223Z,9.27
2018-09-28T19:22:46.681Z,9.24
2018-09-28T19:25:13.279Z,9.23
2018-09-28T19:27:40.973Z,9.19
2018-09-28T19:30:08.989Z,9.16
2018-09-28T19:32:35.517Z,9.13
2018-09-28T19:35:02.527Z,9.14
2018-09-28T19:37:29.004Z,9.14
2018-09-28T19:39:55.486Z,9.15
2018-09-28T19:42:22.408Z,9.15
2018-09-28T19:44:49.852Z,9.13
2018-09-28T19:47:16.357Z,9.13
2018-09-28T19:49:43.908Z,9.07
2018-09-28T19:52:11.731Z,9.01
2018-09-28T19:54:38.449Z,8.94
2018-09-28T19:57:05.348Z,8.90
2018-09-28T19:59:31.968Z,8.87
2018-09-28T20:01:59.069Z,8.83
2018-09-28T20:29:58.684Z,8.64
2018-09-28T20:32:25.277Z,8.63
2018-09-28T20:34:52.158Z,8.64
2018-09-28T20:37:19.897Z,8.64
2018-09-28T20:39:46.659Z,8.59
2018-09-28T20:42:15.549Z,8.56
2018-09-28T20:44:43.637Z,8.51
2018-09-28T20:47:10.258Z,8.51
2018-09-28T20:49:37.646Z,8.48
2018-09-28T20:52:04.410Z,8.50
2018-09-28T21:00:10.668Z,8.52
2018-09-28T21:05:04.212Z,8.46
2018-09-28T21:07:30.763Z,8.47
2018-09-28T21:09:59.302Z,8.42
2018-09-28T21:12:27.279Z,8.38
2018-09-28T21:14:56.295Z,8.33
2018-09-28T21:17:22.840Z,8.22
2018-09-28T21:19:51.306Z,8.19
2018-09-28T21:22:18.617Z,8.14
2018-09-28T21:24:45.148Z,8.12
2018-09-28T21:27:12.094Z,8.10
2018-09-28T21:29:38.566Z,8.03
2018-09-28T21:32:05.122Z,7.98
2018-09-28T21:34:31.997Z,7.98
2018-09-28T21:36:58.502Z,7.95
2018-09-28T21:39:26.675Z,7.89
2018-09-28T21:41:55.041Z,7.87
2018-09-28T21:44:23.390Z,7.80
2018-09-28T21:46:50.608Z,7.77
2018-09-28T21:49:18.428Z,7.75
2018-09-28T21:51:44.929Z,7.69
2018-09-28T22:01:18.578Z,7.35
2018-09-28T22:03:45.102Z,7.31
2018-09-28T22:06:15.242Z,7.32
2018-09-28T22:08:41.899Z,7.25
2018-09-28T22:11:08.526Z,7.23
2018-09-28T22:13:35.568Z,7.23
2018-09-28T22:16:02.158Z,7.17
2018-09-28T22:30:14.358Z,7.15
2018-09-28T22:32:40.836Z,7.03
2018-09-28T22:35:08.577Z,6.97
2018-09-28T22:37:35.042Z,6.98
2018-09-28T22:40:01.504Z,6.94
2018-09-28T22:42:28.293Z,6.82
2018-09-28T22:44:56.238Z,6.76
2018-09-28T22:47:22.771Z,6.71
2018-09-28T22:49:49.240Z,6.73
2018-09-28T22:52:16.207Z,6.73
2018-09-28T22:54:42.702Z,6.74
2018-09-28T22:57:09.201Z,6.77
2018-09-28T22:59:36.045Z,6.75
2018-09-28T23:02:02.530Z,6.69
2018-09-28T23:04:29.000Z,6.71
2018-09-28T23:06:55.976Z,6.69
2018-09-28T23:09:22.494Z,6.63
2018-09-28T23:11:49.040Z,6.57
2018-09-28T23:14:19.440Z,6.50
2018-09-28T23:16:45.937Z,6.48
2018-09-28T23:19:12.459Z,6.56
2018-09-28T23:21:39.016Z,6.67
2018-09-28T23:24:05.906Z,6.61
2018-09-28T23:26:32.436Z,6.51
2018-09-28T23:29:00.328Z,6.49
2018-09-28T23:31:27.273Z,6.47
2018-09-28T23:33:53.768Z,6.47
2018-09-28T23:36:20.279Z,6.38
2018-09-28T23:38:47.435Z,6.36
2018-09-28T23:41:14.422Z,6.34
2018-09-28T23:43:40.925Z,6.44
2018-09-28T23:46:07.430Z,6.46
2018-09-28T23:48:34.329Z,6.43
2018-09-28T23:51:00.813Z,6.39
2018-09-28T23:53:27.309Z,6.35
2018-09-28T23:55:54.239Z,6.32
2018-09-28T23:58:21.541Z,6.27
